Time;durP1;ratioP1;P1;durP2;ratioP2;P2;SDS_P1;SDS_P2;PMS_P1;PMS_P2;Temp;Humidity;BMP_temperature;BMP_pressure;BME280_temperature;BME280_humidity;BME280_pressure;Samples;Min_cycle;Max_cycle;Signal;HPM_P1;HPM_P2
2022/04/26 03:37:48;;;;;;;7.03;3.30;;;;;;;-146.64;100.00;42703.84;5017796;28;20105;-82
2022/04/26 03:40:16;;;;;;;5.15;3.55;;;;;;;-146.64;100.00;43056.19;5012621;28;20041;-79
2022/04/26 03:42:42;;;;;;;7.68;3.22;;;;;;;-146.64;100.00;43597.03;5028382;28;20026;-79
2022/04/26 03:45:08;;;;;;;7.40;3.13;;;;;;;-146.64;100.00;45519.31;4994749;28;20030;-80
2022/04/26 03:47:34;;;;;;;9.63;3.43;;;;;;;-146.64;100.00;44842.94;5000751;28;20041;-80
2022/04/26 03:49:59;;;;;;;6.35;3.08;;;;;;;-146.64;100.00;45972.34;5004694;28;20113;-80
2022/04/26 03:52:25;;;;;;;7.10;4.22;;;;;;;-146.64;100.00;47381.00;5007627;28;20073;-80
2022/04/26 03:54:50;;;;;;;6.45;3.35;;;;;;;-146.64;100.00;49067.09;5000692;28;20122;-80
2022/04/26 03:57:15;;;;;;;10.20;3.55;;;;;;;-146.64;100.00;53201.31;5028098;28;20034;-80
2022/04/26 03:59:41;;;;;;;6.63;3.30;;;;;;;-146.64;100.00;56620.34;5024789;28;20040;-80
2022/04/26 04:02:06;;;;;;;6.57;3.53;;;;;;;-146.64;100.00;58725.81;5023667;28;20030;-81
2022/04/26 04:04:32;;;;;;;6.93;3.50;;;;;;;-146.64;100.00;62940.13;4999104;28;20087;-82
2022/04/26 04:06:57;;;;;;;9.15;3.75;;;;;;;-146.64;100.00;65576.34;4994286;28;20034;-81
2022/04/26 04:09:23;;;;;;;7.10;3.60;;;;;;;-146.64;100.00;69269.97;5020886;28;20117;-80
2022/04/26 04:11:48;;;;;;;7.85;4.05;;;;;;;-146.64;100.00;71910.38;5029757;28;20063;-80
2022/04/26 04:14:14;;;;;;;13.40;3.83;;;;;;;-146.64;100.00;73231.22;5002831;28;20041;-81
2022/04/26 04:16:40;;;;;;;7.90;4.10;;;;;;;-146.64;100.00;76403.06;5020269;28;20098;-78
2022/04/26 04:19:24;;;;;;;12.35;4.03;;;;;;;-146.64;100.00;77460.91;5010636;28;20041;-81
2022/04/26 04:21:51;;;;;;;9.05;4.13;;;;;;;-146.64;100.00;79312.78;5003116;28;20109;-80
2022/04/26 04:24:18;;;;;;;11.90;4.05;;;;;;;-146.64;100.00;80371.41;5005903;28;20025;-80
2022/04/26 04:26:43;;;;;;;10.57;4.88;;;;;;;-146.64;100.00;81695.03;5003963;28;20066;-79
2022/04/26 04:29:31;;;;;;;15.23;4.57;;;;;;;-146.64;100.00;83548.88;5009762;28;20044;-80
2022/04/26 04:31:56;;;;;;;8.63;5.57;;;;;;;-146.64;100.00;85403.56;5000740;28;20144;-79
2022/04/26 04:34:22;;;;;;;8.93;5.38;;;;;;;-146.64;100.00;86728.88;4991175;28;20120;-80
2022/04/26 04:36:48;;;;;;;9.07;5.13;;;;;;;-146.64;100.00;88054.63;4995065;28;20176;-80
2022/04/26 04:39:19;;;;;;;20.38;5.93;;;;;;;-146.64;100.00;88585.03;4985160;28;20418;-80
2022/04/26 04:41:45;;;;;;;11.13;5.25;;;;;;;-146.64;100.00;89911.41;4990538;28;20477;-80
2022/04/26 04:44:11;;;;;;;18.65;5.43;;;;;;;-146.64;100.00;90176.72;5002693;28;20057;-81
2022/04/26 04:46:36;;;;;;;11.20;5.55;;;;;;;-146.64;100.00;90442.06;4980033;28;20504;-80
2022/04/26 04:49:02;;;;;;;23.75;5.05;;;;;;;-146.64;100.00;88850.28;4994108;28;20045;-80
2022/04/26 04:51:27;;;;;;;12.45;5.20;;;;;;;-146.64;100.00;87524.28;4986558;28;20030;-81
2022/04/26 04:53:52;;;;;;;14.50;5.28;;;;;;;-146.64;100.00;87259.13;4993697;28;20026;-81
2022/04/26 04:56:18;;;;;;;9.98;5.47;;;;;;;-146.64;100.00;86463.78;4984913;28;20125;-80
2022/04/26 04:58:43;;;;;;;17.50;5.17;;;;;;;-146.64;100.00;85403.56;5011252;28;20112;-81
2022/04/26 05:01:08;;;;;;;12.88;5.25;;;;;;;-146.64;100.00;84873.56;5008785;28;20060;-81
2022/04/26 05:03:34;;;;;;;17.33;5.47;;;;;;;-146.64;100.00;84873.56;5006937;28;20088;-80
2022/04/26 05:05:59;;;;;;;9.35;5.20;;;;;;;-146.64;100.00;84873.56;4989917;28;20026;-81
2022/04/26 05:08:25;;;;;;;13.03;5.63;;;;;;;-146.64;100.00;84078.72;5009851;28;20141;-81
2022/04/26 05:10:50;;;;;;;14.32;5.40;;;;;;;-146.64;100.00;84343.66;4980012;28;20065;-82
2022/04/26 05:13:15;;;;;;;11.93;6.03;;;;;;;-146.64;100.00;84608.59;4999667;28;20040;-81
2022/04/26 05:15:44;;;;;;;17.27;5.57;;;;;;;-146.64;100.00;84608.59;5004508;28;20033;-81
2022/04/26 05:18:10;;;;;;;13.05;5.80;;;;;;;-146.64;100.00;84873.56;5013426;28;20033;-83
2022/04/26 05:20:36;;;;;;;13.53;5.33;;;;;;;-146.64;100.00;85138.56;5007629;28;20029;-82
2022/04/26 05:25:45;;;;;;;10.77;5.68;;;;;;;-146.64;100.00;84078.72;5008603;28;20122;-83
2022/04/26 05:28:11;;;;;;;16.27;5.90;;;;;;;-146.64;100.00;84078.72;5005512;28;20124;-83
2022/04/26 05:30:36;;;;;;;14.18;6.32;;;;;;;-146.64;100.00;85138.56;5004172;28;20026;-84
2022/04/26 05:33:01;;;;;;;14.05;4.97;;;;;;;-146.64;100.00;84873.56;5019327;28;20085;-82
2022/04/26 05:35:27;;;;;;;11.53;5.67;;;;;;;-146.64;100.00;85933.66;5031646;28;20481;-83
2022/04/26 05:37:52;;;;;;;14.27;5.30;;;;;;;-146.64;100.00;86463.78;5019498;28;20095;-83
2022/04/26 05:40:17;;;;;;;14.18;5.20;;;;;;;-146.64;100.00;85668.59;5015731;28;20555;-83
2022/04/26 05:42:43;;;;;;;14.68;6.28;;;;;;;-146.64;100.00;85138.56;5022829;28;20116;-82
2022/04/26 05:45:08;;;;;;;13.70;5.78;;;;;;;-146.64;100.00;84873.56;5023708;28;20045;-83
2022/04/26 05:47:34;;;;;;;10.60;5.45;;;;;;;-146.64;100.00;84873.56;5012922;28;20484;-82
2022/04/26 05:49:59;;;;;;;14.13;5.78;;;;;;;-146.64;100.00;85403.56;5005979;28;20034;-82
2022/04/26 05:52:25;;;;;;;17.75;5.40;;;;;;;-146.64;100.00;85403.56;5008499;28;20026;-82
2022/04/26 05:54:53;;;;;;;16.13;6.22;;;;;;;-146.64;100.00;85403.56;5008809;28;20420;-80
2022/04/26 05:57:18;;;;;;;18.08;5.95;;;;;;;-146.64;100.00;84873.56;4986232;28;20029;-82
2022/04/26 05:59:44;;;;;;;21.50;5.60;;;;;;;-146.64;100.00;84343.66;5009976;28;20037;-84
2022/04/26 06:02:11;;;;;;;20.60;5.85;;;;;;;-146.64;100.00;83284.00;5021885;28;20107;-82
2022/04/26 06:04:38;;;;;;;17.23;5.93;;;;;;;-146.64;100.00;82489.44;4995013;28;20028;-83
2022/04/26 06:07:03;;;;;;;13.27;5.60;;;;;;;-146.64;100.00;81695.03;5004530;28;20109;-83
2022/04/26 06:09:29;;;;;;;19.02;5.22;;;;;;;-146.64;100.00;80371.41;4996836;28;20061;-83
2022/04/26 06:11:54;;;;;;;18.33;6.25;;;;;;;-146.64;100.00;80636.09;4989386;28;20030;-83
2022/04/26 06:14:20;;;;;;;21.17;5.43;;;;;;;-146.64;100.00;77989.94;4999916;28;20202;-83
2022/04/26 06:16:46;;;;;;;15.90;6.25;;;;;;;-146.64;100.00;76138.66;5008417;28;20040;-82
2022/04/26 06:19:11;;;;;;;11.57;5.47;;;;;;;-146.64;100.00;72702.84;5000600;28;20038;-83
2022/04/26 06:21:36;;;;;;;13.85;5.70;;;;;;;-146.64;100.00;68214.31;4996307;28;20036;-83
2022/04/26 06:24:02;;;;;;;14.27;5.97;;;;;;;-146.64;100.00;66895.09;5021722;28;20076;-83
2022/04/26 06:26:27;;;;;;;14.13;6.07;;;;;;;-146.64;100.00;62676.59;5002275;28;20048;-83
2022/04/26 06:28:53;;;;;;;13.88;5.68;;;;;;;-146.64;100.00;61095.81;4993305;28;20070;-83
2022/04/26 06:31:18;;;;;;;13.32;5.68;;;;;;;-146.64;100.00;57936.13;5020551;28;20029;-83
2022/04/26 06:33:43;;;;;;;22.17;6.13;;;;;;;-146.64;100.00;56620.34;5005146;28;20022;-83
2022/04/26 06:36:11;;;;;;;17.65;6.15;;;;;;;-146.64;100.00;53727.13;5009214;28;20026;-83
2022/04/26 06:38:37;;;;;;;11.25;5.07;;;;;;;-146.64;100.00;50573.31;5003603;28;20474;-83
2022/04/26 06:41:02;;;;;;;10.60;5.47;;;;;;;-146.64;100.00;49054.78;4986699;28;20033;-83
2022/04/26 06:43:32;;;;;;;22.37;5.67;;;;;;;-146.64;100.00;51513.44;5002021;28;20081;-83
2022/04/26 06:45:57;;;;;;;16.15;5.55;;;;;;;-146.64;100.00;50955.09;5011981;28;20516;-83
2022/04/26 06:48:23;;;;;;;17.67;5.30;;;;;;;-146.64;100.00;50879.13;5007724;28;20033;-83
2022/04/26 06:50:49;;;;;;;17.15;5.72;;;;;;;-146.64;100.00;51995.91;4992721;28;20056;-83
2022/04/26 06:53:14;;;;;;;12.90;4.80;;;;;;;-146.64;100.00;50975.63;5010592;28;20048;-84
2022/04/26 06:55:40;;;;;;;18.30;5.78;;;;;;;-146.64;100.00;51862.47;5018253;28;20157;-83
2022/04/26 06:58:06;;;;;;;21.98;5.88;;;;;;;-146.64;100.00;51061.81;4995142;28;20064;-83
2022/04/26 07:00:31;;;;;;;13.77;5.35;;;;;;;-146.64;100.00;49438.47;5006372;28;20408;-84
2022/04/26 07:03:06;;;;;;;12.35;5.78;;;;;;;-146.64;100.00;48326.53;4999500;28;20038;-84
2022/04/26 07:05:31;;;;;;;18.88;5.72;;;;;;;-146.64;100.00;49301.00;4993258;28;21182;-85
2022/04/26 07:07:57;;;;;;;10.27;5.05;;;;;;;-146.64;100.00;48447.53;5013265;28;20084;-84
2022/04/26 07:10:22;;;;;;;18.20;5.03;;;;;;;-146.64;100.00;48254.72;5035921;28;20303;-84
2022/04/26 07:12:50;;;;;;;19.15;5.28;;;;;;;-146.64;100.00;47303.06;5005707;28;20413;-85
2022/04/26 07:15:15;;;;;;;15.20;5.25;;;;;;;-146.64;100.00;45884.19;5002910;28;20021;-84
2022/04/26 07:17:41;;;;;;;17.38;5.70;;;;;;;-146.64;100.00;43982.25;5023663;28;20022;-84
2022/04/26 07:20:08;;;;;;;12.07;5.33;;;;;;;-146.64;100.00;42767.34;4983116;28;20052;-84
2022/04/26 07:22:34;;;;;;;15.23;4.63;;;;;;;-146.64;100.00;41839.53;5007235;28;21006;-84
2022/04/26 07:24:59;;;;;;;13.30;4.60;;;;;;;-146.64;100.00;41610.19;5026806;28;20037;-83
2022/04/26 07:27:25;;;;;;;17.23;5.10;;;;;;;-146.64;100.00;40897.63;4992345;28;20022;-83
2022/04/26 07:29:51;;;;;;;13.17;4.83;;;;;;;-146.64;100.00;40177.00;5020864;28;20033;-85
2022/04/26 07:32:16;;;;;;;13.93;5.03;;;;;;;-146.64;100.00;40156.50;5010254;28;20025;-87
2022/04/26 07:34:42;;;;;;;17.35;5.88;;;;;;;-146.64;100.00;40156.50;5003106;28;20036;-85
2022/04/26 07:37:07;;;;;;;9.67;4.20;;;;;;;-146.64;100.00;40015.28;5013846;28;20033;-84
2022/04/26 07:39:34;;;;;;;11.83;5.37;;;;;;;-146.64;100.00;40275.25;5004354;28;20042;-84
2022/04/26 07:42:02;;;;;;;23.45;5.53;;;;;;;-146.64;100.00;39874.03;4999938;28;20037;-84
2022/04/26 07:44:28;;;;;;;18.15;4.22;;;;;;;-146.64;100.00;39802.41;5017174;28;20029;-85
2022/04/26 07:46:54;;;;;;;12.93;5.03;;;;;;;-146.64;100.00;39669.34;5012385;28;20030;-85
2022/04/26 07:49:23;;;;;;;12.13;4.68;;;;;;;-146.64;100.00;39573.16;4999394;28;20063;-85
2022/04/26 07:51:49;;;;;;;14.77;5.30;;;;;;;-146.64;100.00;39452.41;5001697;28;20041;-84
2022/04/26 07:54:16;;;;;;;12.30;4.60;;;;;;;-146.64;100.00;39431.94;5017625;28;20026;-85
2022/04/26 07:56:41;;;;;;;11.02;4.93;;;;;;;-146.64;100.00;39370.53;4997043;28;20516;-85
2022/04/26 07:59:07;;;;;;;14.48;4.57;;;;;;;-146.64;100.00;39274.34;5014957;28;20068;-85
2022/04/26 08:01:33;;;;;;;16.55;4.68;;;;;;;-146.64;100.00;39260.00;5001535;28;20026;-85
2022/04/26 08:03:58;;;;;;;16.60;5.03;;;;;;;-146.64;100.00;39161.78;5006946;28;20049;-86
2022/04/26 08:06:24;;;;;;;14.00;4.65;;;;;;;-146.64;100.00;39206.81;4998643;28;20034;-83
2022/04/26 08:08:50;;;;;;;9.45;3.90;;;;;;;-146.64;100.00;39186.34;5000737;28;20038;-82
2022/04/26 08:11:15;;;;;;;11.50;3.77;;;;;;;-146.64;100.00;39176.09;5014816;28;20034;-85
2022/04/26 08:13:41;;;;;;;11.00;4.03;;;;;;;-146.64;100.00;39182.25;5011765;28;20474;-85
2022/04/26 08:16:16;;;;;;;17.57;4.53;;;;;;;-146.64;100.00;39219.09;4979293;28;20041;-86
2022/04/26 08:18:41;;;;;;;10.82;4.60;;;;;;;-146.64;100.00;39227.28;5002021;28;20133;-87
2022/04/26 08:21:07;;;;;;;8.73;3.80;;;;;;;-146.64;100.00;39180.19;5015078;28;20065;-85
2022/04/26 08:23:34;;;;;;;8.03;3.80;;;;;;;-146.64;100.00;39131.09;4994270;28;20033;-86
2022/04/26 08:28:45;;;;;;;15.00;3.95;;;;;;;-146.64;100.00;39153.59;5010749;28;20211;-84
2022/04/26 08:31:11;;;;;;;12.25;4.25;;;;;;;-146.64;100.00;39043.09;4993167;28;20083;-83
2022/04/26 08:33:36;;;;;;;9.80;3.47;;;;;;;-146.64;100.00;39071.75;5020680;28;20056;-84
2022/04/26 08:36:02;;;;;;;13.77;4.15;;;;;;;-146.64;100.00;39075.84;4982185;28;20030;-82
2022/04/26 08:38:27;;;;;;;14.97;4.33;;;;;;;-146.64;100.00;38985.78;4995358;28;20025;-84
2022/04/26 08:40:53;;;;;;;7.23;3.97;;;;;;;-146.64;100.00;38908.03;5001351;28;20030;-84
2022/04/26 08:43:18;;;;;;;10.83;4.03;;;;;;;-146.64;100.00;38936.66;5019134;28;20642;-81
2022/04/26 08:45:46;;;;;;;12.93;4.43;;;;;;;-146.64;100.00;38932.56;4997382;28;20079;-82
2022/04/26 08:51:05;;;;;;;14.98;3.90;;;;;;;-146.64;100.00;38891.66;5036243;28;20037;-83
2022/04/26 08:53:35;;;;;;;11.57;4.25;;;;;;;-146.64;100.00;38916.22;5004387;28;20529;-83
2022/04/26 08:56:03;;;;;;;7.85;4.07;;;;;;;-146.64;100.00;38985.78;5003578;28;20064;-82
2022/04/26 08:58:32;;;;;;;12.25;3.78;;;;;;;-146.64;100.00;39047.19;5002445;28;20242;-82
2022/04/26 09:01:24;;;;;;;15.77;3.83;;;;;;;-146.64;100.00;38969.41;4976133;28;20030;-83
2022/04/26 09:03:56;;;;;;;14.60;4.28;;;;;;;-146.64;100.00;38940.75;4989454;28;20040;-83
2022/04/26 09:06:43;;;;;;;8.82;4.03;;;;;;;-146.64;100.00;38879.38;5015214;28;20210;-83
2022/04/26 09:09:18;;;;;;;8.70;3.88;;;;;;;-146.64;100.00;38961.22;4998982;28;20022;-83
2022/04/26 09:11:43;;;;;;;10.93;3.67;;;;;;;-146.64;100.00;38981.69;5001808;28;20377;-85
2022/04/26 09:14:29;;;;;;;8.77;4.00;;;;;;;-146.64;100.00;38879.38;5026451;28;20025;-84
2022/04/26 09:17:04;;;;;;;10.60;4.40;;;;;;;-146.64;100.00;38817.97;5023296;28;20037;-82
2022/04/26 09:19:49;;;;;;;15.60;3.90;;;;;;;-146.64;100.00;38727.94;5000488;28;20061;-82
2022/04/26 09:22:19;;;;;;;13.55;3.72;;;;;;;-146.64;97.04;38727.94;5026157;28;20025;-83
2022/04/26 09:24:58;;;;;;;8.35;3.40;;;;;;;-146.64;92.07;38684.97;5036617;28;20138;-83
2022/04/26 09:27:23;;;;;;;7.20;3.20;;;;;;;-146.64;91.34;38662.47;5026892;28;20071;-82
2022/04/26 09:29:49;;;;;;;6.30;3.50;;;;;;;-146.64;88.79;38666.56;5031034;28;20041;-83
2022/04/26 09:32:21;;;;;;;6.33;3.20;;;;;;;-146.64;91.51;38654.28;5019890;28;20026;-81
2022/04/26 09:34:47;;;;;;;14.38;4.45;;;;;;;-146.64;90.98;38511.03;4997614;28;20021;-82
2022/04/26 09:37:13;;;;;;;11.52;3.80;;;;;;;-146.64;91.79;38637.91;5016248;28;20013;-82
2022/04/26 09:39:39;;;;;;;12.87;3.57;;;;;;;-146.64;89.19;38699.28;5032310;28;20057;-82
2022/04/26 09:42:05;;;;;;;11.27;3.05;;;;;;;-146.64;81.18;38736.13;5011890;28;20038;-82
2022/04/26 09:44:32;;;;;;;7.05;2.63;;;;;;;-146.64;77.66;38691.13;5028167;28;20037;-81
2022/04/26 09:46:58;;;;;;;7.22;2.88;;;;;;;-146.64;73.48;38646.09;5017098;28;20029;-81
2022/04/26 09:49:25;;;;;;;6.83;2.83;;;;;;;-146.64;71.91;38639.97;5029148;28;20064;-82
2022/04/26 09:51:59;;;;;;;10.10;2.53;;;;;;;-146.64;68.34;38599.03;5025486;28;20045;-82
2022/04/26 09:54:24;;;;;;;6.70;2.28;;;;;;;-146.64;66.77;38599.03;5037384;28;20084;-81
2022/04/26 09:56:50;;;;;;;9.40;2.33;;;;;;;-146.64;63.54;38566.28;5007444;28;20585;-80
2022/04/26 09:59:25;;;;;;;5.83;2.50;;;;;;;-146.64;59.92;38637.91;5006056;28;20072;-82
2022/04/26 10:01:54;;;;;;;6.55;2.17;;;;;;;-146.64;60.77;38539.69;5027049;28;20078;-82
2022/04/26 10:04:21;;;;;;;7.45;2.40;;;;;;;-146.64;62.26;38500.81;4989613;28;20044;-82
2022/04/26 10:06:49;;;;;;;5.55;2.40;;;;;;;-146.64;58.90;38519.22;5023372;28;20030;-83
2022/04/26 10:09:15;;;;;;;9.00;2.75;;;;;;;-146.64;65.65;38511.03;5032464;28;20037;-82
2022/04/26 10:11:40;;;;;;;9.80;3.33;;;;;;;-146.64;65.87;38433.28;5022999;28;20055;-82
2022/04/26 10:14:07;;;;;;;5.37;2.90;;;;;;;-146.64;65.87;38695.19;5039334;28;20025;-83
2022/04/26 10:16:32;;;;;;;11.40;3.10;;;;;;;-146.64;67.26;38412.81;5015936;28;20029;-82
2022/04/26 10:19:09;;;;;;;5.70;2.67;;;;;;;-146.64;65.82;38363.72;5026835;28;20126;-82
2022/04/26 10:21:41;;;;;;;5.70;2.70;;;;;;;-146.64;69.33;38736.13;5014039;28;20030;-82
2022/04/26 10:24:22;;;;;;;9.10;3.00;;;;;;;-146.64;75.01;38813.88;5024160;28;20037;-83
2022/04/26 10:26:48;;;;;;;5.40;3.00;;;;;;;-146.64;75.41;38601.06;5017719;28;20025;-83
2022/04/26 10:29:23;;;;;;;5.90;3.10;;;;;;;-146.64;72.14;38498.75;5007319;28;20046;-82
2022/04/26 10:31:59;;;;;;;12.75;3.47;;;;;;;-146.64;68.72;38629.72;5012676;28;20042;-82
2022/04/26 10:34:30;;;;;;;5.87;3.20;;;;;;;-146.64;69.48;38564.25;5009645;28;20975;-84
2022/04/26 10:37:11;;;;;;;9.38;3.20;;;;;;;-146.64;68.07;38400.56;4996292;28;20531;-81
2022/04/26 10:39:39;;;;;;;7.07;3.75;;;;;;;-146.64;68.11;38613.34;5018125;28;20488;-83
2022/04/26 10:42:16;;;;;;;6.00;2.90;;;;;;;-146.64;70.42;38721.81;5000871;28;20366;-83
2022/04/26 10:44:44;;;;;;;6.93;2.88;;;;;;;-146.64;69.83;38646.09;5031799;28;20032;-84
2022/04/26 10:47:12;;;;;;;9.55;3.03;;;;;;;-146.64;65.31;38511.03;5008220;28;20033;-83
2022/04/26 10:49:42;;;;;;;6.70;3.42;;;;;;;-146.64;65.33;38414.88;5009201;28;20036;-82
2022/04/26 10:52:22;;;;;;;6.43;3.40;;;;;;;-146.64;62.59;38384.19;5003139;28;20018;-83
2022/04/26 10:55:03;;;;;;;6.85;3.30;;;;;;;-146.64;55.79;38396.47;5018926;28;20046;-82
2022/04/26 10:57:33;;;;;;;7.57;3.03;;;;;;;-146.64;49.17;38531.50;5021089;28;20040;-84
2022/04/26 11:00:06;;;;;;;6.47;2.65;;;;;;;-146.64;50.33;38339.16;5015747;28;20103;-82
2022/04/26 11:02:36;;;;;;;4.72;2.80;;;;;;;-146.64;49.68;38425.09;5010516;28;20033;-84
2022/04/26 11:05:04;;;;;;;6.30;2.83;;;;;;;-146.64;51.24;38392.38;5000659;28;20022;-80
2022/04/26 11:07:30;;;;;;;6.38;2.75;;;;;;;-146.64;48.18;38441.47;5017668;28;20091;-80
2022/04/26 11:09:58;;;;;;;7.20;2.58;;;;;;;-146.64;51.54;38339.16;4991495;28;20531;-79
2022/04/26 11:12:25;;;;;;;9.48;3.05;;;;;;;-146.64;51.55;38298.25;5013599;28;20540;-82
2022/04/26 11:14:52;;;;;;;8.45;3.60;;;;;;;-146.64;51.06;38380.09;4999248;28;20477;-82
2022/04/26 11:17:20;;;;;;;6.18;3.33;;;;;;;-146.64;50.47;38447.63;5026295;28;20544;-82
2022/04/26 11:19:55;;;;;;;7.80;3.63;;;;;;;-146.64;53.92;38390.31;4998817;28;20094;-82
2022/04/26 11:22:22;;;;;;;7.32;2.92;;;;;;;-146.64;49.31;38337.13;5017132;28;20033;-82
2022/04/26 11:30:51;;;;;;;8.20;3.38;;;;;;;-146.64;53.07;38249.13;4988284;28;20049;-77
2022/04/26 11:33:22;;;;;;;4.97;3.10;;;;;;;-146.64;49.00;38200.03;5005295;28;20040;-77
2022/04/26 11:36:01;;;;;;;7.18;3.25;;;;;;;-146.64;46.33;38326.88;5005047;28;20029;-78
2022/04/26 11:38:27;;;;;;;8.77;3.45;;;;;;;-146.64;47.28;38257.31;5010289;28;20036;-78
2022/04/26 11:40:54;;;;;;;4.60;3.13;;;;;;;-146.64;45.78;38294.16;5020752;28;20377;-78
2022/04/26 11:43:26;;;;;;;6.75;3.00;;;;;;;-146.64;45.28;38245.06;4990052;28;20034;-77
2022/04/26 11:45:53;;;;;;;5.47;3.10;;;;;;;-146.64;45.64;38232.78;5000552;28;20407;-78
2022/04/26 11:48:26;;;;;;;6.50;3.05;;;;;;;-146.64;46.47;38077.28;5010646;28;20033;-76
2022/04/26 11:50:53;;;;;;;9.65;3.20;;;;;;;-146.64;45.46;38353.50;4986605;28;20025;-76
2022/04/26 11:53:29;;;;;;;;;;;;;;;-146.64;46.89;38191.84;4997667;28;20397;-76
2022/04/26 11:55:58;;;;;;;8.38;3.00;;;;;;;-146.64;44.97;38208.22;4999480;28;19921;-77
2022/04/26 11:58:34;;;;;;;7.78;2.53;;;;;;;-146.64;45.14;38193.91;5007334;28;20114;-76
2022/04/26 12:01:02;;;;;;;6.07;3.10;;;;;;;-146.64;43.96;38216.41;5019607;28;20033;-76
2022/04/26 12:03:29;;;;;;;8.10;3.00;;;;;;;-146.64;43.38;38150.94;4989937;28;20033;-77
2022/04/26 12:06:05;;;;;;;5.75;3.13;;;;;;;-146.64;42.37;38283.94;4994737;28;20045;-76
2022/04/26 12:08:48;;;;;;;5.40;3.00;;;;;;;-146.64;42.35;38249.13;4990737;28;20072;-76
2022/04/26 12:11:18;;;;;;;3.47;2.60;;;;;;;-146.64;42.33;38478.31;5017275;28;20037;-77
2022/04/26 12:13:44;;;;;;;3.88;2.65;;;;;;;-146.64;43.33;38642.00;5014099;28;20029;-76
2022/04/26 12:16:29;;;;;;;4.87;2.53;;;;;;;-146.64;44.46;38300.28;5004353;28;20060;-76
2022/04/26 12:19:00;;;;;;;3.58;2.80;;;;;;;-146.64;45.73;38629.72;4992907;28;20025;-79
2022/04/26 12:21:27;;;;;;;6.10;3.00;;;;;;;-146.64;44.04;38320.75;5008354;28;20034;-81
2022/04/26 12:24:11;;;;;;;4.63;3.00;;;;;;;-146.64;43.73;38288.00;5000824;28;20040;-78
2022/04/26 12:26:51;;;;;;;8.25;3.15;;;;;;;-146.64;42.99;38150.94;5015307;28;20045;-79
2022/04/26 12:29:16;;;;;;;6.82;3.30;;;;;;;-146.64;43.87;38308.47;5008655;28;20038;-77
2022/04/26 12:31:47;;;;;;;5.67;3.20;;;;;;;-146.64;43.96;38320.75;4995759;28;20044;-76
2022/04/26 12:34:22;;;;;;;4.85;3.15;;;;;;;-146.64;44.46;38582.66;5006278;28;20032;-78
2022/04/26 12:36:52;;;;;;;10.88;3.30;;;;;;;-146.64;44.66;38273.69;4995235;28;20348;-80
2022/04/26 12:39:21;;;;;;;6.50;3.00;;;;;;;-146.64;43.95;38320.75;5011003;28;20052;-79
2022/04/26 12:41:48;;;;;;;4.10;2.90;;;;;;;-146.64;43.51;38613.34;5015625;28;20040;-78
2022/04/26 12:44:15;;;;;;;8.35;3.10;;;;;;;-146.64;43.92;38629.72;4996598;28;20038;-79
2022/04/26 12:52:42;;;;;;;11.15;3.28;;;;;;;-146.64;59.22;38580.63;4999548;28;20087;-78
2022/04/26 12:55:07;;;;;;;7.37;3.03;;;;;;;-146.64;56.38;38554.00;4976138;28;20025;-79
2022/04/26 12:57:53;;;;;;;9.60;3.27;;;;;;;-146.64;56.97;38670.66;5001255;28;20480;-78
2022/04/26 13:00:20;;;;;;;4.53;3.25;;;;;;;-146.64;59.18;38668.59;4991636;28;20388;-78
2022/04/26 13:02:47;;;;;;;6.53;3.10;;;;;;;-146.64;58.58;38707.47;4980912;28;20030;-77
2022/04/26 13:05:12;;;;;;;8.23;3.13;;;;;;;-146.64;59.52;38619.50;4995116;28;20030;-81
2022/04/26 13:07:38;;;;;;;15.63;3.70;;;;;;;-146.64;59.46;38654.28;5012730;28;20032;-82
2022/04/26 13:10:04;;;;;;;13.43;3.60;;;;;;;-146.64;60.79;38648.13;5016522;28;20044;-81
2022/04/26 13:12:29;;;;;;;10.73;3.35;;;;;;;-146.64;61.10;38588.81;5042595;28;20018;-82
2022/04/26 13:14:55;;;;;;;8.70;3.10;;;;;;;-146.64;58.26;38691.13;5024114;28;20036;-82
2022/04/26 13:17:21;;;;;;;8.60;3.17;;;;;;;-146.64;57.74;38691.13;5024490;28;20033;-82
2022/04/26 13:19:47;;;;;;;6.23;3.03;;;;;;;-146.64;60.12;38674.75;5010754;28;20029;-82
2022/04/26 13:22:13;;;;;;;9.37;2.93;;;;;;;-146.64;62.81;38732.03;5014274;28;20544;-82
2022/04/26 13:24:41;;;;;;;5.37;3.00;;;;;;;-146.64;63.54;38727.94;5003072;28;20026;-81
2022/04/26 13:27:06;;;;;;;11.27;3.08;;;;;;;-146.64;64.10;38666.56;5022659;28;20041;-81
2022/04/26 13:29:32;;;;;;;8.87;3.43;;;;;;;-146.64;61.58;38678.84;5008607;28;20022;-83
2022/04/26 13:31:58;;;;;;;7.73;3.50;;;;;;;-146.64;61.94;38748.41;5036223;28;20030;-83
2022/04/26 13:34:23;;;;;;;15.67;3.57;;;;;;;-146.64;62.43;38742.28;5000940;28;20022;-81
2022/04/26 13:36:49;;;;;;;10.87;3.43;;;;;;;-146.64;63.00;38682.94;5005925;28;20087;-82
2022/04/26 13:39:15;;;;;;;9.00;3.30;;;;;;;-146.64;60.08;38535.59;5030472;28;20123;-82
2022/04/26 13:41:40;;;;;;;12.87;4.17;;;;;;;-146.64;60.99;38654.28;5028383;28;20086;-82
2022/04/26 13:44:05;;;;;;;7.93;4.43;;;;;;;-146.64;62.67;38535.59;5007216;28;20070;-82
2022/04/26 13:46:31;;;;;;;7.83;3.60;;;;;;;-146.64;60.38;38599.03;5004748;28;20057;-83
2022/04/26 13:48:56;;;;;;;6.17;3.30;;;;;;;-146.64;60.64;38650.19;5010489;28;20022;-82
2022/04/26 13:51:24;;;;;;;6.33;4.20;;;;;;;-146.64;60.44;38646.09;4990886;28;20517;-82
2022/04/26 13:53:50;;;;;;;5.53;3.45;;;;;;;-146.64;58.47;38378.03;5003340;28;20017;-83
2022/04/26 13:56:15;;;;;;;10.07;3.77;;;;;;;-146.64;58.35;38466.03;5002468;28;20073;-83
2022/04/26 13:58:41;;;;;;;6.73;3.33;;;;;;;-146.64;56.87;38582.66;5020792;28;20445;-83
2022/04/26 14:01:06;;;;;;;7.07;3.00;;;;;;;-146.64;58.84;38678.84;5002677;28;20025;-83
2022/04/26 14:03:31;;;;;;;8.33;3.60;;;;;;;-146.64;58.36;38412.81;4990382;28;20029;-83
2022/04/26 14:05:58;;;;;;;13.50;3.60;;;;;;;-146.64;55.01;38183.66;5010886;28;20052;-83
2022/04/26 14:08:23;;;;;;;5.38;3.00;;;;;;;-146.64;55.29;38547.88;5006876;28;20357;-82
2022/04/26 14:10:49;;;;;;;4.50;2.77;;;;;;;-146.64;54.36;38339.16;5021649;28;20086;-83
2022/04/26 14:13:14;;;;;;;12.40;3.40;;;;;;;-146.64;52.78;38296.19;4999617;28;20049;-83
2022/04/26 14:24:04;;;;;;;10.00;2.50;;;;;;;-146.64;55.97;38568.34;5002048;28;20512;-82
2022/04/26 14:26:29;;;;;;;;;;;;;;;-146.64;55.12;38314.63;5004869;28;20152;-83
2022/04/26 14:28:54;;;;;;;11.02;2.85;;;;;;;-146.64;54.33;38371.91;5019222;28;20022;-82
2022/04/26 14:31:19;;;;;;;16.03;3.40;;;;;;;-146.64;55.32;38631.78;5009832;28;20029;-82
2022/04/26 14:33:45;;;;;;;5.50;3.40;;;;;;;-146.64;56.90;38703.38;5020725;28;20042;-82
2022/04/26 14:36:13;;;;;;;5.03;3.00;;;;;;;-146.64;54.69;38365.78;5002379;28;20038;-82
2022/04/26 14:38:39;;;;;;;9.95;3.15;;;;;;;-146.64;55.18;38416.91;5013770;28;20090;-82
2022/04/26 14:41:04;;;;;;;10.63;3.27;;;;;;;-146.64;54.35;38330.97;4993758;28;20045;-81
2022/04/26 14:43:30;;;;;;;7.77;3.23;;;;;;;-146.64;52.72;38361.69;5027195;28;20499;-82
2022/04/26 14:45:55;;;;;;;6.50;2.80;;;;;;;-146.64;53.66;38410.78;5011935;28;20038;-81
2022/04/26 14:48:23;;;;;;;7.80;3.30;;;;;;;-146.64;53.59;38670.66;4997298;28;20064;-82
2022/04/26 14:50:49;;;;;;;5.43;3.30;;;;;;;-146.64;56.14;38664.50;4995331;28;20397;-82
2022/04/26 14:53:15;;;;;;;4.57;2.72;;;;;;;-146.64;57.29;38680.88;4997697;28;20060;-82
2022/04/26 14:55:41;;;;;;;6.22;2.90;;;;;;;-146.64;57.19;38717.72;5016948;28;20041;-84
2022/04/26 14:58:11;;;;;;;6.97;2.92;;;;;;;-146.64;58.98;38734.09;4986935;28;20044;-83
2022/04/26 15:00:36;;;;;;;8.07;2.80;;;;;;;-146.64;55.51;38367.81;5002208;28;20114;-81
2022/04/26 15:03:03;;;;;;;10.50;3.17;;;;;;;-146.64;55.31;38633.81;4996068;28;20091;-79
2022/04/26 15:05:28;;;;;;;6.28;2.60;;;;;;;-146.64;54.83;38637.91;5026355;28;20048;-82
2022/04/26 15:10:37;;;;;;;8.18;2.92;;;;;;;-146.64;58.59;38732.03;5029432;28;20095;-82
2022/04/26 15:18:35;;;;;;;7.82;3.38;;;;;;;-146.64;59.83;38723.84;5023558;28;20036;-82
2022/04/26 15:21:02;;;;;;;7.18;2.83;;;;;;;-146.64;58.73;38660.41;5003338;28;20112;-83
2022/04/26 15:23:28;;;;;;;4.55;3.28;;;;;;;-146.64;57.80;38662.47;5016403;28;20068;-84
2022/04/26 15:25:55;;;;;;;5.73;2.73;;;;;;;-146.64;57.62;38721.81;5021351;28;20038;-82